sensor_id;sensor_type;location;lat;lon;timestamp;pressure;altitude;pressure_sealevel;temperature;humidity
28167;BME280;15455;53.376;-6.262;2023-01-27T00:01:40;103410.53;;;3.06;100.00
28167;BME280;15455;53.376;-6.262;2023-01-27T00:04:25;103412.66;;;3.00;100.00
28167;BME280;15455;53.376;-6.262;2023-01-27T00:07:11;103406.06;;;2.92;100.00
28167;BME280;15455;53.376;-6.262;2023-01-27T00:09:56;103406.63;;;2.88;100.00
28167;BME280;15455;53.376;-6.262;2023-01-27T00:12:42;103404.50;;;2.82;100.00
28167;BME280;15455;53.376;-6.262;2023-01-27T00:15:47;103407.63;;;2.78;100.00
28167;BME280;15455;53.376;-6.262;2023-01-27T00:18:32;103409.78;;;2.72;100.00
28167;BME280;15455;53.376;-6.262;2023-01-27T00:21:18;103407.88;;;2.69;100.00
28167;BME280;15455;53.376;-6.262;2023-01-27T00:24:22;103405.41;;;2.59;100.00
28167;BME280;15455;53.376;-6.262;2023-01-27T00:27:22;103410.78;;;2.50;100.00
28167;BME280;15455;53.376;-6.262;2023-01-27T00:30:09;103405.75;;;2.52;100.00
28167;BME280;15455;53.376;-6.262;2023-01-27T00:32:55;103394.41;;;2.50;100.00
28167;BME280;15455;53.376;-6.262;2023-01-27T00:36:05;103390.59;;;2.45;100.00
28167;BME280;15455;53.376;-6.262;2023-01-27T00:38:51;103381.50;;;2.38;100.00
28167;BME280;15455;53.376;-6.262;2023-01-27T00:41:37;103382.06;;;2.34;100.00
28167;BME280;15455;53.376;-6.262;2023-01-27T00:44:23;103376.69;;;2.31;100.00
28167;BME280;15455;53.376;-6.262;2023-01-27T00:47:08;103376.56;;;2.29;100.00
28167;BME280;15455;53.376;-6.262;2023-01-27T00:49:55;103366.72;;;2.23;100.00
28167;BME280;15455;53.376;-6.262;2023-01-27T00:52:41;103364.91;;;2.22;100.00
28167;BME280;15455;53.376;-6.262;2023-01-27T00:55:27;103363.25;;;2.23;100.00
28167;BME280;15455;53.376;-6.262;2023-01-27T00:58:13;103363.69;;;2.17;100.00
28167;BME280;15455;53.376;-6.262;2023-01-27T01:01:01;103359.66;;;2.21;100.00
28167;BME280;15455;53.376;-6.262;2023-01-27T01:03:47;103359.97;;;2.14;100.00
28167;BME280;15455;53.376;-6.262;2023-01-27T01:06:33;103361.00;;;2.16;100.00
28167;BME280;15455;53.376;-6.262;2023-01-27T01:09:20;103355.50;;;2.11;100.00
28167;BME280;15455;53.376;-6.262;2023-01-27T01:12:05;103358.88;;;2.10;100.00
28167;BME280;15455;53.376;-6.262;2023-01-27T01:14:51;103351.78;;;2.07;100.00
28167;BME280;15455;53.376;-6.262;2023-01-27T01:17:36;103354.91;;;2.03;100.00
28167;BME280;15455;53.376;-6.262;2023-01-27T01:20:22;103354.59;;;1.99;100.00
28167;BME280;15455;53.376;-6.262;2023-01-27T01:23:09;103351.91;;;1.97;100.00
28167;BME280;15455;53.376;-6.262;2023-01-27T01:25:56;103340.94;;;2.00;100.00
28167;BME280;15455;53.376;-6.262;2023-01-27T01:28:43;103337.22;;;1.96;100.00
28167;BME280;15455;53.376;-6.262;2023-01-27T01:31:29;103342.91;;;1.92;100.00
28167;BME280;15455;53.376;-6.262;2023-01-27T01:34:14;103344.72;;;1.93;100.00
28167;BME280;15455;53.376;-6.262;2023-01-27T01:37:01;103340.47;;;1.94;100.00
28167;BME280;15455;53.376;-6.262;2023-01-27T01:39:46;103344.16;;;1.97;100.00
28167;BME280;15455;53.376;-6.262;2023-01-27T01:43:05;103343.84;;;1.93;100.00
28167;BME280;15455;53.376;-6.262;2023-01-27T01:45:53;103342.38;;;1.96;100.00
28167;BME280;15455;53.376;-6.262;2023-01-27T01:48:57;103347.53;;;1.96;100.00
28167;BME280;15455;53.376;-6.262;2023-01-27T01:51:47;103337.09;;;1.95;100.00
28167;BME280;15455;53.376;-6.262;2023-01-27T01:54:44;103341.25;;;1.93;100.00
28167;BME280;15455;53.376;-6.262;2023-01-27T01:57:32;103345.75;;;1.95;100.00
28167;BME280;15455;53.376;-6.262;2023-01-27T02:00:21;103352.34;;;2.03;100.00
28167;BME280;15455;53.376;-6.262;2023-01-27T02:03:08;103340.16;;;2.01;100.00
28167;BME280;15455;53.376;-6.262;2023-01-27T02:05:54;103333.53;;;2.04;100.00
28167;BME280;15455;53.376;-6.262;2023-01-27T02:08:44;103322.00;;;1.99;100.00
28167;BME280;15455;53.376;-6.262;2023-01-27T02:11:31;103319.19;;;1.96;100.00
28167;BME280;15455;53.376;-6.262;2023-01-27T02:14:16;103319.19;;;1.96;100.00
28167;BME280;15455;53.376;-6.262;2023-01-27T02:17:03;103322.56;;;1.95;100.00
28167;BME280;15455;53.376;-6.262;2023-01-27T02:22:51;103328.94;;;1.88;100.00
28167;BME280;15455;53.376;-6.262;2023-01-27T02:28:56;103319.84;;;1.82;100.00
28167;BME280;15455;53.376;-6.262;2023-01-27T02:31:43;103316.91;;;1.77;100.00
28167;BME280;15455;53.376;-6.262;2023-01-27T02:34:31;103310.88;;;1.77;100.00
28167;BME280;15455;53.376;-6.262;2023-01-27T02:37:19;103318.38;;;1.73;100.00
28167;BME280;15455;53.376;-6.262;2023-01-27T02:40:07;103318.94;;;1.69;100.00
28167;BME280;15455;53.376;-6.262;2023-01-27T02:42:55;103314.66;;;1.70;100.00
28167;BME280;15455;53.376;-6.262;2023-01-27T02:45:41;103310.06;;;1.66;100.00
28167;BME280;15455;53.376;-6.262;2023-01-27T02:48:29;103311.75;;;1.65;100.00
28167;BME280;15455;53.376;-6.262;2023-01-27T02:51:15;103314.09;;;1.62;100.00
28167;BME280;15455;53.376;-6.262;2023-01-27T02:54:02;103306.81;;;1.68;100.00
28167;BME280;15455;53.376;-6.262;2023-01-27T02:56:47;103315.63;;;1.60;100.00
28167;BME280;15455;53.376;-6.262;2023-01-27T02:59:34;103311.97;;;1.56;100.00
28167;BME280;15455;53.376;-6.262;2023-01-27T03:02:20;103318.78;;;1.56;100.00
28167;BME280;15455;53.376;-6.262;2023-01-27T03:05:07;103319.78;;;1.58;100.00
28167;BME280;15455;53.376;-6.262;2023-01-27T03:07:53;103316.22;;;1.56;100.00
28167;BME280;15455;53.376;-6.262;2023-01-27T03:10:39;103311.97;;;1.56;100.00
28167;BME280;15455;53.376;-6.262;2023-01-27T03:13:25;103311.31;;;1.59;100.00
28167;BME280;15455;53.376;-6.262;2023-01-27T03:16:12;103312.19;;;1.60;100.00
28167;BME280;15455;53.376;-6.262;2023-01-27T03:19:16;103316.56;;;1.61;100.00
28167;BME280;15455;53.376;-6.262;2023-01-27T03:22:02;103312.19;;;1.60;100.00
28167;BME280;15455;53.376;-6.262;2023-01-27T03:24:50;103307.69;;;1.57;100.00
28167;BME280;15455;53.376;-6.262;2023-01-27T03:27:37;103291.78;;;1.51;100.00
28167;BME280;15455;53.376;-6.262;2023-01-27T03:30:42;103291.22;;;1.43;100.00
28167;BME280;15455;53.376;-6.262;2023-01-27T03:33:39;103288.28;;;1.38;100.00
28167;BME280;15455;53.376;-6.262;2023-01-27T03:36:39;103291.72;;;1.27;100.00
28167;BME280;15455;53.376;-6.262;2023-01-27T03:39:44;103288.31;;;1.16;100.00
28167;BME280;15455;53.376;-6.262;2023-01-27T03:42:51;103286.81;;;1.08;100.00
28167;BME280;15455;53.376;-6.262;2023-01-27T03:45:56;103281.56;;;1.07;100.00
28167;BME280;15455;53.376;-6.262;2023-01-27T03:49:03;103289.50;;;1.10;100.00
28167;BME280;15455;53.376;-6.262;2023-01-27T03:51:48;103283.81;;;1.14;100.00
28167;BME280;15455;53.376;-6.262;2023-01-27T03:54:34;103275.69;;;1.19;100.00
28167;BME280;15455;53.376;-6.262;2023-01-27T03:57:20;103270.88;;;1.24;100.00
28167;BME280;15455;53.376;-6.262;2023-01-27T04:00:05;103277.63;;;1.34;100.00
28167;BME280;15455;53.376;-6.262;2023-01-27T04:02:57;103285.03;;;1.41;100.00
28167;BME280;15455;53.376;-6.262;2023-01-27T04:06:03;103282.16;;;1.48;100.00
28167;BME280;15455;53.376;-6.262;2023-01-27T04:09:08;103279.03;;;1.52;100.00
28167;BME280;15455;53.376;-6.262;2023-01-27T04:11:56;103286.22;;;1.56;100.00
28167;BME280;15455;53.376;-6.262;2023-01-27T04:14:44;103296.97;;;1.63;100.00
28167;BME280;15455;53.376;-6.262;2023-01-27T04:17:30;103290.28;;;1.65;100.00
28167;BME280;15455;53.376;-6.262;2023-01-27T04:20:23;103281.75;;;1.66;100.00
28167;BME280;15455;53.376;-6.262;2023-01-27T04:23:08;103280.22;;;1.68;100.00
28167;BME280;15455;53.376;-6.262;2023-01-27T04:25:54;103274.38;;;1.70;100.00
28167;BME280;15455;53.376;-6.262;2023-01-27T04:28:41;103282.34;;;1.73;100.00
28167;BME280;15455;53.376;-6.262;2023-01-27T04:31:30;103281.75;;;1.78;100.00
28167;BME280;15455;53.376;-6.262;2023-01-27T04:34:17;103274.03;;;1.78;100.00
28167;BME280;15455;53.376;-6.262;2023-01-27T04:37:03;103274.84;;;1.77;100.00
28167;BME280;15455;53.376;-6.262;2023-01-27T04:39:49;103281.00;;;1.79;100.00
28167;BME280;15455;53.376;-6.262;2023-01-27T04:42:34;103273.25;;;1.79;100.00
28167;BME280;15455;53.376;-6.262;2023-01-27T04:45:20;103274.28;;;1.81;100.00
28167;BME280;15455;53.376;-6.262;2023-01-27T04:48:05;103281.22;;;1.82;100.00
28167;BME280;15455;53.376;-6.262;2023-01-27T04:50:51;103281.31;;;1.83;100.00
28167;BME280;15455;53.376;-6.262;2023-01-27T04:53:37;103287.50;;;1.85;100.00
28167;BME280;15455;53.376;-6.262;2023-01-27T04:56:29;103288.50;;;1.87;100.00
28167;BME280;15455;53.376;-6.262;2023-01-27T04:59:15;103286.03;;;1.89;100.00
28167;BME280;15455;53.376;-6.262;2023-01-27T05:02:00;103291.41;;;1.92;100.00
28167;BME280;15455;53.376;-6.262;2023-01-27T05:04:48;103287.94;;;1.91;100.00
28167;BME280;15455;53.376;-6.262;2023-01-27T05:07:34;103281.09;;;1.92;100.00
28167;BME280;15455;53.376;-6.262;2023-01-27T05:10:19;103277.66;;;1.91;100.00
28167;BME280;15455;53.376;-6.262;2023-01-27T05:13:04;103275.97;;;1.92;100.00
28167;BME280;15455;53.376;-6.262;2023-01-27T05:15:50;103281.09;;;1.92;100.00
28167;BME280;15455;53.376;-6.262;2023-01-27T05:18:36;103287.19;;;1.93;100.00
28167;BME280;15455;53.376;-6.262;2023-01-27T05:21:24;103288.06;;;1.93;100.00
28167;BME280;15455;53.376;-6.262;2023-01-27T05:24:12;103287.94;;;1.91;100.00
28167;BME280;15455;53.376;-6.262;2023-01-27T05:26:58;103284.50;;;1.91;100.00
28167;BME280;15455;53.376;-6.262;2023-01-27T05:29:43;103284.59;;;1.93;100.00
28167;BME280;15455;53.376;-6.262;2023-01-27T05:32:28;103278.53;;;1.92;100.00
28167;BME280;15455;53.376;-6.262;2023-01-27T05:35:14;103282.78;;;1.91;100.00
28167;BME280;15455;53.376;-6.262;2023-01-27T05:38:00;103288.63;;;1.89;100.00
28167;BME280;15455;53.376;-6.262;2023-01-27T05:40:45;103280.00;;;1.88;100.00
28167;BME280;15455;53.376;-6.262;2023-01-27T05:43:32;103276.44;;;1.86;100.00
28167;BME280;15455;53.376;-6.262;2023-01-27T05:46:21;103282.56;;;1.88;100.00
28167;BME280;15455;53.376;-6.262;2023-01-27T05:49:07;103284.28;;;1.88;100.00
28167;BME280;15455;53.376;-6.262;2023-01-27T05:51:53;103280.88;;;1.89;100.00
28167;BME280;15455;53.376;-6.262;2023-01-27T05:54:39;103282.69;;;1.90;100.00
28167;BME280;15455;53.376;-6.262;2023-01-27T05:57:24;103277.66;;;1.91;100.00
28167;BME280;15455;53.376;-6.262;2023-01-27T06:00:10;103276.97;;;1.94;100.00
28167;BME280;15455;53.376;-6.262;2023-01-27T06:02:55;103278.69;;;1.94;100.00
28167;BME280;15455;53.376;-6.262;2023-01-27T06:05:52;103281.38;;;1.95;100.00
28167;BME280;15455;53.376;-6.262;2023-01-27T06:08:38;103286.50;;;1.95;100.00
28167;BME280;15455;53.376;-6.262;2023-01-27T06:11:24;103284.81;;;1.96;100.00
28167;BME280;15455;53.376;-6.262;2023-01-27T06:14:10;103273.53;;;1.94;100.00
28167;BME280;15455;53.376;-6.262;2023-01-27T06:16:55;103283.13;;;1.96;100.00
28167;BME280;15455;53.376;-6.262;2023-01-27T06:19:40;103285.59;;;1.95;100.00
28167;BME280;15455;53.376;-6.262;2023-01-27T06:22:26;103282.13;;;1.94;100.00
28167;BME280;15455;53.376;-6.262;2023-01-27T06:25:11;103284.72;;;1.94;100.00
28167;BME280;15455;53.376;-6.262;2023-01-27T06:27:57;103276.97;;;1.94;100.00
28167;BME280;15455;53.376;-6.262;2023-01-27T06:30:43;103276.97;;;1.94;100.00
28167;BME280;15455;53.376;-6.262;2023-01-27T06:33:28;103273.38;;;1.92;100.00
28167;BME280;15455;53.376;-6.262;2023-01-27T06:36:16;103269.81;;;1.90;100.00
28167;BME280;15455;53.376;-6.262;2023-01-27T06:39:02;103269.03;;;1.91;100.00
28167;BME280;15455;53.376;-6.262;2023-01-27T06:41:48;103275.97;;;1.92;100.00
28167;BME280;15455;53.376;-6.262;2023-01-27T06:44:34;103275.06;;;1.91;100.00
28167;BME280;15455;53.376;-6.262;2023-01-27T06:47:19;103271.63;;;1.91;100.00
28167;BME280;15455;53.376;-6.262;2023-01-27T06:50:06;103271.50;;;1.89;100.00
28167;BME280;15455;53.376;-6.262;2023-01-27T06:52:52;103270.59;;;1.89;100.00
28167;BME280;15455;53.376;-6.262;2023-01-27T06:55:38;103267.13;;;1.88;100.00
28167;BME280;15455;53.376;-6.262;2023-01-27T06:58:28;103267.00;;;1.87;100.00
28167;BME280;15455;53.376;-6.262;2023-01-27T07:01:14;103271.28;;;1.86;100.00
28167;BME280;15455;53.376;-6.262;2023-01-27T07:03:59;103270.38;;;1.86;100.00
28167;BME280;15455;53.376;-6.262;2023-01-27T07:06:45;103266.91;;;1.85;100.00
28167;BME280;15455;53.376;-6.262;2023-01-27T07:09:30;103260.16;;;1.87;100.00
28167;BME280;15455;53.376;-6.262;2023-01-27T07:12:27;103264.66;;;1.90;100.00
28167;BME280;15455;53.376;-6.262;2023-01-27T07:15:12;103263.09;;;1.92;100.00
28167;BME280;15455;53.376;-6.262;2023-01-27T07:17:59;103268.38;;;1.94;100.00
28167;BME280;15455;53.376;-6.262;2023-01-27T07:20:44;103266.69;;;1.94;100.00
28167;BME280;15455;53.376;-6.262;2023-01-27T07:23:30;103271.06;;;1.95;100.00
28167;BME280;15455;53.376;-6.262;2023-01-27T07:26:15;103272.84;;;1.96;100.00
28167;BME280;15455;53.376;-6.262;2023-01-27T07:29:09;103278.91;;;1.97;100.00
28167;BME280;15455;53.376;-6.262;2023-01-27T07:31:54;103275.41;;;1.96;100.00
28167;BME280;15455;53.376;-6.262;2023-01-27T07:34:40;103281.59;;;1.98;100.00
28167;BME280;15455;53.376;-6.262;2023-01-27T07:37:25;103286.84;;;2.00;100.00
28167;BME280;15455;53.376;-6.262;2023-01-27T07:40:11;103294.56;;;2.00;100.00
28167;BME280;15455;53.376;-6.262;2023-01-27T07:42:59;103292.00;;;2.00;100.00
28167;BME280;15455;53.376;-6.262;2023-01-27T07:45:45;103293.91;;;2.02;100.00
28167;BME280;15455;53.376;-6.262;2023-01-27T07:48:33;103295.78;;;2.05;100.00
28167;BME280;15455;53.376;-6.262;2023-01-27T07:51:19;103295.91;;;2.06;100.00
28167;BME280;15455;53.376;-6.262;2023-01-27T07:54:04;103287.41;;;2.07;100.00
28167;BME280;15455;53.376;-6.262;2023-01-27T07:56:50;103284.94;;;2.09;100.00
28167;BME280;15455;53.376;-6.262;2023-01-27T07:59:35;103284.94;;;2.09;100.00
28167;BME280;15455;53.376;-6.262;2023-01-27T08:02:22;103297.16;;;2.12;100.00
28167;BME280;15455;53.376;-6.262;2023-01-27T08:05:07;103293.81;;;2.13;100.00
28167;BME280;15455;53.376;-6.262;2023-01-27T08:07:54;103290.53;;;2.15;100.00
28167;BME280;15455;53.376;-6.262;2023-01-27T08:10:43;103300.16;;;2.18;100.00
28167;BME280;15455;53.376;-6.262;2023-01-27T08:13:34;103305.53;;;2.21;100.00
28167;BME280;15455;53.376;-6.262;2023-01-27T08:16:20;103303.06;;;2.22;100.00
28167;BME280;15455;53.376;-6.262;2023-01-27T08:19:06;103303.22;;;2.24;100.00
28167;BME280;15455;53.376;-6.262;2023-01-27T08:21:51;103311.06;;;2.25;100.00
28167;BME280;15455;53.376;-6.262;2023-01-27T08:24:37;103321.59;;;2.29;100.00
28167;BME280;15455;53.376;-6.262;2023-01-27T08:27:22;103326.84;;;2.30;100.00
28167;BME280;15455;53.376;-6.262;2023-01-27T08:30:08;103335.69;;;2.34;100.00
28167;BME280;15455;53.376;-6.262;2023-01-27T08:32:55;103338.38;;;2.35;100.00
28167;BME280;15455;53.376;-6.262;2023-01-27T08:35:40;103336.81;;;2.37;100.00
28167;BME280;15455;53.376;-6.262;2023-01-27T08:38:28;103337.59;;;2.36;100.00
28167;BME280;15455;53.376;-6.262;2023-01-27T08:41:21;103334.25;;;2.37;100.00
28167;BME280;15455;53.376;-6.262;2023-01-27T08:44:07;103330.88;;;2.38;100.00
28167;BME280;15455;53.376;-6.262;2023-01-27T08:46:53;103343.88;;;2.40;100.00
28167;BME280;15455;53.376;-6.262;2023-01-27T08:49:39;103351.94;;;2.45;100.00
28167;BME280;15455;53.376;-6.262;2023-01-27T08:52:25;103347.66;;;2.45;100.00
28167;BME280;15455;53.376;-6.262;2023-01-27T08:55:12;103346.13;;;2.47;100.00
28167;BME280;15455;53.376;-6.262;2023-01-27T08:57:58;103352.28;;;2.49;100.00
28167;BME280;15455;53.376;-6.262;2023-01-27T09:00:43;103352.50;;;2.52;100.00
28167;BME280;15455;53.376;-6.262;2023-01-27T09:03:30;103350.94;;;2.54;100.00
28167;BME280;15455;53.376;-6.262;2023-01-27T09:06:17;103339.16;;;2.58;100.00
28167;BME280;15455;53.376;-6.262;2023-01-27T09:09:03;103333.31;;;2.60;100.00
28167;BME280;15455;53.376;-6.262;2023-01-27T09:11:56;103319.75;;;2.63;100.00
28167;BME280;15455;53.376;-6.262;2023-01-27T09:14:42;103315.81;;;2.68;100.00
28167;BME280;15455;53.376;-6.262;2023-01-27T09:17:27;103302.25;;;2.71;100.00
28167;BME280;15455;53.376;-6.262;2023-01-27T09:20:13;103307.84;;;2.77;100.00
28167;BME280;15455;53.376;-6.262;2023-01-27T09:22:59;103306.38;;;2.81;100.00
28167;BME280;15455;53.376;-6.262;2023-01-27T09:25:45;103305.81;;;2.85;100.00
28167;BME280;15455;53.376;-6.262;2023-01-27T09:28:30;103298.19;;;2.86;100.00
28167;BME280;15455;53.376;-6.262;2023-01-27T09:31:15;103294.91;;;2.89;100.00
28167;BME280;15455;53.376;-6.262;2023-01-27T09:34:01;103290.09;;;2.93;100.00
28167;BME280;15455;53.376;-6.262;2023-01-27T09:36:51;103285.34;;;3.00;100.00
28167;BME280;15455;53.376;-6.262;2023-01-27T09:39:59;103282.50;;;3.08;100.00
28167;BME280;15455;53.376;-6.262;2023-01-27T09:54:36;103275.00;;;3.89;100.00
28167;BME280;15455;53.376;-6.262;2023-01-27T10:00:18;103272.13;;;4.24;100.00
28167;BME280;15455;53.376;-6.262;2023-01-27T10:16:06;103221.41;;;4.13;100.00
28167;BME280;15455;53.376;-6.262;2023-01-27T10:28:05;103209.31;;;3.98;100.00
28167;BME280;15455;53.376;-6.262;2023-01-27T10:31:08;103206.44;;;3.94;100.00
28167;BME280;15455;53.376;-6.262;2023-01-27T10:34:12;103209.09;;;3.95;100.00
28167;BME280;15455;53.376;-6.262;2023-01-27T10:40:05;103207.81;;;4.02;100.00
28167;BME280;15455;53.376;-6.262;2023-01-27T10:49:22;103204.44;;;4.16;100.00
28167;BME280;15455;53.376;-6.262;2023-01-27T10:52:18;103210.47;;;4.17;100.00
28167;BME280;15455;53.376;-6.262;2023-01-27T10:55:18;103211.31;;;4.16;100.00
28167;BME280;15455;53.376;-6.262;2023-01-27T10:58:14;103208.59;;;4.14;100.00
28167;BME280;15455;53.376;-6.262;2023-01-27T11:01:03;103213.16;;;4.18;100.00
28167;BME280;15455;53.376;-6.262;2023-01-27T11:07:16;103206.81;;;4.27;100.00
28167;BME280;15455;53.376;-6.262;2023-01-27T11:10:07;103206.38;;;4.34;100.00
28167;BME280;15455;53.376;-6.262;2023-01-27T11:13:02;103212.94;;;4.42;100.00
28167;BME280;15455;53.376;-6.262;2023-01-27T11:15:49;103217.59;;;4.48;100.00
28167;BME280;15455;53.376;-6.262;2023-01-27T11:18:37;103223.94;;;4.53;100.00
28167;BME280;15455;53.376;-6.262;2023-01-27T11:21:26;103222.03;;;4.64;100.00
28167;BME280;15455;53.376;-6.262;2023-01-27T11:24:27;103225.09;;;4.72;100.00
28167;BME280;15455;53.376;-6.262;2023-01-27T11:27:52;103231.31;;;4.75;100.00
28167;BME280;15455;53.376;-6.262;2023-01-27T11:34:30;103221.72;;;4.73;100.00
28167;BME280;15455;53.376;-6.262;2023-01-27T11:37:18;103215.94;;;4.77;100.00
28167;BME280;15455;53.376;-6.262;2023-01-27T11:40:30;103220.28;;;4.78;100.00
28167;BME280;15455;53.376;-6.262;2023-01-27T11:43:19;103214.13;;;4.76;100.00
28167;BME280;15455;53.376;-6.262;2023-01-27T11:46:09;103222.25;;;4.82;100.00
28167;BME280;15455;53.376;-6.262;2023-01-27T11:48:57;103218.28;;;4.87;100.00
28167;BME280;15455;53.376;-6.262;2023-01-27T11:51:43;103214.97;;;4.90;100.00
28167;BME280;15455;53.376;-6.262;2023-01-27T11:54:34;103227.19;;;4.92;100.00
28167;BME280;15455;53.376;-6.262;2023-01-27T11:57:23;103212.91;;;4.84;100.00
28167;BME280;15455;53.376;-6.262;2023-01-27T12:00:35;103212.25;;;4.73;100.00
28167;BME280;15455;53.376;-6.262;2023-01-27T12:06:26;103204.66;;;4.76;100.00
28167;BME280;15455;53.376;-6.262;2023-01-27T12:09:41;103207.84;;;4.85;100.00
28167;BME280;15455;53.376;-6.262;2023-01-27T12:12:27;103213.38;;;4.92;100.00
28167;BME280;15455;53.376;-6.262;2023-01-27T12:15:17;103211.75;;;4.94;100.00
28167;BME280;15455;53.376;-6.262;2023-01-27T12:18:14;103208.09;;;4.90;100.00
28167;BME280;15455;53.376;-6.262;2023-01-27T12:21:05;103202.66;;;4.85;100.00
28167;BME280;15455;53.376;-6.262;2023-01-27T12:23:53;103197.81;;;4.77;100.00
28167;BME280;15455;53.376;-6.262;2023-01-27T12:26:43;103183.38;;;4.80;100.00
28167;BME280;15455;53.376;-6.262;2023-01-27T12:29:46;103171.41;;;4.82;100.00
28167;BME280;15455;53.376;-6.262;2023-01-27T12:32:38;103166.97;;;4.80;100.00
28167;BME280;15455;53.376;-6.262;2023-01-27T12:38:17;103146.25;;;4.80;100.00
28167;BME280;15455;53.376;-6.262;2023-01-27T12:41:06;103150.53;;;4.79;100.00
28167;BME280;15455;53.376;-6.262;2023-01-27T12:44:16;103149.03;;;4.83;100.00
28167;BME280;15455;53.376;-6.262;2023-01-27T12:47:20;103150.09;;;4.86;100.00
28167;BME280;15455;53.376;-6.262;2023-01-27T12:50:23;103142.72;;;4.93;100.00
28167;BME280;15455;53.376;-6.262;2023-01-27T12:53:16;103132.47;;;4.94;100.00
28167;BME280;15455;53.376;-6.262;2023-01-27T13:01:40;103106.22;;;5.03;100.00
28167;BME280;15455;53.376;-6.262;2023-01-27T13:04:26;103105.06;;;5.13;100.00
28167;BME280;15455;53.376;-6.262;2023-01-27T13:07:16;103098.63;;;5.36;100.00
28167;BME280;15455;53.376;-6.262;2023-01-27T13:10:05;103098.66;;;5.52;100.00
28167;BME280;15455;53.376;-6.262;2023-01-27T13:12:58;103094.34;;;5.68;100.00
28167;BME280;15455;53.376;-6.262;2023-01-27T13:16:24;103084.00;;;5.68;100.00
28167;BME280;15455;53.376;-6.262;2023-01-27T13:19:16;103074.25;;;5.64;100.00
28167;BME280;15455;53.376;-6.262;2023-01-27T13:22:03;103076.59;;;5.59;100.00
28167;BME280;15455;53.376;-6.262;2023-01-27T13:24:53;103078.19;;;5.57;100.00
28167;BME280;15455;53.376;-6.262;2023-01-27T13:27:43;103080.09;;;5.60;100.00
28167;BME280;15455;53.376;-6.262;2023-01-27T13:30:33;103084.78;;;5.67;100.00
28167;BME280;15455;53.376;-6.262;2023-01-27T13:33:43;103073.63;;;5.68;100.00
28167;BME280;15455;53.376;-6.262;2023-01-27T13:36:42;103064.69;;;5.63;100.00
28167;BME280;15455;53.376;-6.262;2023-01-27T13:39:40;103060.88;;;5.56;100.00
28167;BME280;15455;53.376;-6.262;2023-01-27T13:42:47;103063.75;;;5.46;100.00
28167;BME280;15455;53.376;-6.262;2023-01-27T13:45:47;103063.34;;;5.38;100.00
28167;BME280;15455;53.376;-6.262;2023-01-27T13:48:41;103056.75;;;5.28;100.00
28167;BME280;15455;53.376;-6.262;2023-01-27T13:51:30;103053.91;;;5.24;100.00
28167;BME280;15455;53.376;-6.262;2023-01-27T13:54:17;103048.47;;;5.19;100.00
28167;BME280;15455;53.376;-6.262;2023-01-27T13:57:43;103051.94;;;5.19;100.00
28167;BME280;15455;53.376;-6.262;2023-01-27T14:00:36;103049.81;;;5.27;100.00
28167;BME280;15455;53.376;-6.262;2023-01-27T14:06:51;103035.09;;;5.43;100.00
28167;BME280;15455;53.376;-6.262;2023-01-27T14:22:02;103017.75;;;5.73;100.00
28167;BME280;15455;53.376;-6.262;2023-01-27T14:25:45;103012.34;;;5.85;100.00
28167;BME280;15455;53.376;-6.262;2023-01-27T14:31:17;103004.63;;;6.01;100.00
28167;BME280;15455;53.376;-6.262;2023-01-27T14:37:36;103003.81;;;6.19;100.00
28167;BME280;15455;53.376;-6.262;2023-01-27T14:40:29;103008.91;;;6.17;100.00
28167;BME280;15455;53.376;-6.262;2023-01-27T14:43:36;102999.50;;;6.19;100.00
28167;BME280;15455;53.376;-6.262;2023-01-27T14:49:58;102997.25;;;6.09;100.00
28167;BME280;15455;53.376;-6.262;2023-01-27T14:52:53;103003.34;;;6.10;100.00
28167;BME280;15455;53.376;-6.262;2023-01-27T14:56:06;103004.88;;;6.06;100.00
28167;BME280;15455;53.376;-6.262;2023-01-27T15:05:08;103007.13;;;6.00;100.00
28167;BME280;15455;53.376;-6.262;2023-01-27T15:08:20;103004.78;;;6.04;100.00
28167;BME280;15455;53.376;-6.262;2023-01-27T15:21:19;102991.13;;;5.76;100.00
28167;BME280;15455;53.376;-6.262;2023-01-27T15:26:33;102982.16;;;5.85;100.00
28167;BME280;15455;53.376;-6.262;2023-01-27T15:29:25;102980.28;;;5.83;100.00
28167;BME280;15455;53.376;-6.262;2023-01-27T15:32:25;102979.31;;;5.81;100.00
28167;BME280;15455;53.376;-6.262;2023-01-27T15:38:20;102974.44;;;5.70;100.00
28167;BME280;15455;53.376;-6.262;2023-01-27T15:41:14;102982.97;;;5.68;100.00
28167;BME280;15455;53.376;-6.262;2023-01-27T15:44:17;102986.34;;;5.67;100.00
28167;BME280;15455;53.376;-6.262;2023-01-27T15:47:18;102985.38;;;5.65;100.00
28167;BME280;15455;53.376;-6.262;2023-01-27T15:50:18;102984.56;;;5.66;100.00
28167;BME280;15455;53.376;-6.262;2023-01-27T15:53:15;102986.19;;;5.64;100.00
28167;BME280;15455;53.376;-6.262;2023-01-27T15:56:01;102987.78;;;5.62;100.00
28167;BME280;15455;53.376;-6.262;2023-01-27T15:58:57;102983.44;;;5.61;100.00
28167;BME280;15455;53.376;-6.262;2023-01-27T16:01:48;102993.63;;;5.57;100.00
28167;BME280;15455;53.376;-6.262;2023-01-27T16:04:43;102994.44;;;5.56;100.00
28167;BME280;15455;53.376;-6.262;2023-01-27T16:07:37;103001.22;;;5.54;100.00
28167;BME280;15455;53.376;-6.262;2023-01-27T16:10:27;103005.34;;;5.51;100.00
28167;BME280;15455;53.376;-6.262;2023-01-27T16:21:59;103016.25;;;5.45;100.00
28167;BME280;15455;53.376;-6.262;2023-01-27T16:24:55;103022.25;;;5.44;100.00
28167;BME280;15455;53.376;-6.262;2023-01-27T16:28:03;103023.94;;;5.44;100.00
28167;BME280;15455;53.376;-6.262;2023-01-27T16:33:44;103020.94;;;5.36;100.00
28167;BME280;15455;53.376;-6.262;2023-01-27T16:36:32;103018.81;;;5.29;100.00
28167;BME280;15455;53.376;-6.262;2023-01-27T16:39:33;103011.59;;;5.23;100.00
28167;BME280;15455;53.376;-6.262;2023-01-27T16:45:29;103010.09;;;5.12;100.00
28167;BME280;15455;53.376;-6.262;2023-01-27T16:48:44;103014.94;;;5.06;100.00
28167;BME280;15455;53.376;-6.262;2023-01-27T16:51:31;103012.97;;;5.01;100.00
28167;BME280;15455;53.376;-6.262;2023-01-27T16:54:25;103012.81;;;4.98;100.00